createdAt,value
2022-10-20T00:00:19.840Z,0.00
2022-10-20T00:01:20.731Z,0.00
2022-10-20T00:02:19.757Z,0.00
2022-10-20T00:03:19.700Z,0.00
2022-10-20T00:04:19.706Z,0.00
2022-10-20T00:05:19.652Z,0.00
2022-10-20T00:06:19.642Z,0.00
2022-10-20T00:07:19.643Z,0.00
2022-10-20T00:08:19.657Z,0.00
2022-10-20T00:09:19.624Z,0.00
2022-10-20T00:10:19.614Z,0.00
2022-10-20T00:11:19.639Z,0.00
2022-10-20T00:12:19.581Z,0.00
2022-10-20T00:13:19.613Z,0.00
2022-10-20T00:14:19.585Z,0.00
2022-10-20T00:15:19.543Z,0.00
2022-10-20T00:16:19.566Z,0.00
2022-10-20T00:17:19.525Z,0.00
2022-10-20T00:18:19.508Z,0.00
2022-10-20T00:19:19.541Z,0.00
2022-10-20T00:20:19.514Z,0.00
2022-10-20T00:21:19.486Z,0.00
2022-10-20T00:22:19.482Z,0.00
2022-10-20T00:23:20.411Z,0.00
2022-10-20T00:24:19.475Z,0.00
2022-10-20T00:25:19.449Z,0.00
2022-10-20T00:26:19.434Z,0.00
2022-10-20T00:27:19.434Z,0.00
2022-10-20T00:28:19.436Z,0.00
2022-10-20T00:29:19.431Z,0.00
2022-10-20T00:30:21.408Z,0.00
2022-10-20T00:31:19.465Z,0.00
2022-10-20T00:32:19.350Z,0.00
2022-10-20T00:33:19.400Z,0.00
2022-10-20T00:34:19.408Z,0.00
2022-10-20T00:35:19.362Z,0.00
2022-10-20T00:36:19.307Z,0.00
2022-10-20T00:37:19.323Z,0.00
2022-10-20T00:39:19.316Z,0.00
2022-10-20T00:40:19.306Z,0.00
2022-10-20T00:41:19.260Z,0.00
2022-10-20T00:42:19.240Z,0.00
2022-10-20T00:43:21.072Z,0.00
2022-10-20T00:44:19.298Z,0.00
2022-10-20T00:45:19.208Z,0.00
2022-10-20T00:46:19.196Z,0.00
2022-10-20T00:47:19.207Z,0.00
2022-10-20T00:48:19.169Z,0.00
2022-10-20T00:49:19.190Z,0.00
2022-10-20T00:50:19.250Z,0.00
2022-10-20T00:51:19.149Z,0.00
2022-10-20T00:52:19.141Z,0.00
2022-10-20T00:53:19.114Z,0.00
2022-10-20T00:54:19.148Z,0.00
2022-10-20T00:55:19.123Z,0.00
2022-10-20T00:56:19.086Z,0.00
2022-10-20T00:57:19.120Z,0.00
2022-10-20T00:58:19.118Z,0.00
2022-10-20T00:59:19.087Z,0.00
2022-10-20T01:00:19.058Z,0.00
2022-10-20T01:01:19.100Z,0.00
2022-10-20T01:02:19.152Z,0.00
2022-10-20T01:03:19.004Z,0.00
2022-10-20T01:04:19.003Z,0.00
2022-10-20T01:05:19.051Z,0.00
2022-10-20T01:06:18.978Z,0.00
2022-10-20T01:07:18.974Z,0.00
2022-10-20T01:08:19.017Z,0.00
2022-10-20T01:09:18.997Z,0.00
2022-10-20T01:10:18.996Z,0.00
2022-10-20T01:11:18.917Z,0.00
2022-10-20T01:12:18.910Z,0.00
2022-10-20T01:13:18.955Z,0.00
2022-10-20T01:14:18.927Z,0.00
2022-10-20T01:15:18.923Z,0.00
2022-10-20T01:16:18.863Z,0.00
2022-10-20T01:17:18.869Z,0.00
2022-10-20T01:18:18.888Z,0.00
2022-10-20T01:19:18.834Z,0.00
2022-10-20T01:20:18.832Z,0.00
2022-10-20T01:21:18.843Z,0.00
2022-10-20T01:22:18.793Z,0.00
2022-10-20T01:23:18.824Z,0.00
2022-10-20T01:24:18.862Z,0.00
2022-10-20T01:25:18.804Z,0.00
2022-10-20T01:26:18.747Z,0.00
2022-10-20T01:27:18.745Z,0.00
2022-10-20T01:28:18.763Z,0.00
2022-10-20T01:29:18.718Z,0.00
2022-10-20T01:30:18.751Z,0.00
2022-10-20T01:31:18.708Z,0.00
2022-10-20T01:32:18.709Z,0.00
2022-10-20T01:33:18.813Z,0.00
2022-10-20T01:34:18.707Z,0.00
2022-10-20T01:35:18.664Z,0.00
2022-10-20T01:36:18.649Z,0.00
2022-10-20T01:37:28.350Z,0.00
2022-10-20T01:38:18.636Z,0.00
2022-10-20T01:39:18.681Z,0.00
2022-10-20T01:40:18.585Z,0.00
2022-10-20T01:41:18.619Z,0.00
2022-10-20T01:42:18.578Z,0.00
2022-10-20T01:43:18.568Z,0.00
2022-10-20T01:44:19.538Z,0.00
2022-10-20T01:45:18.562Z,0.00
2022-10-20T01:46:18.564Z,0.00
2022-10-20T01:47:18.556Z,0.00
2022-10-20T01:48:18.573Z,0.00
2022-10-20T01:49:18.498Z,0.00
2022-10-20T01:50:18.515Z,0.00
2022-10-20T01:51:18.488Z,0.00
2022-10-20T01:52:18.494Z,0.00
2022-10-20T01:53:18.458Z,0.00
2022-10-20T01:54:18.458Z,0.00
2022-10-20T01:55:18.471Z,0.00
2022-10-20T01:56:18.422Z,0.00
2022-10-20T01:57:18.466Z,0.00
2022-10-20T01:58:18.399Z,0.00
2022-10-20T01:59:18.384Z,0.00
2022-10-20T02:00:18.366Z,0.00
2022-10-20T02:01:18.460Z,0.00
2022-10-20T02:02:18.350Z,0.00
2022-10-20T02:03:18.417Z,0.00
2022-10-20T02:04:18.329Z,0.00
2022-10-20T02:05:18.316Z,0.00
2022-10-20T02:06:18.301Z,0.00
2022-10-20T02:07:18.295Z,0.00
2022-10-20T02:08:18.336Z,0.00
2022-10-20T02:09:18.298Z,0.00
2022-10-20T02:10:18.261Z,0.00
2022-10-20T02:11:18.249Z,0.00
2022-10-20T02:12:18.243Z,0.00
2022-10-20T02:13:18.321Z,0.00
2022-10-20T02:14:18.285Z,0.00
2022-10-20T02:15:18.208Z,0.00
2022-10-20T02:16:18.206Z,0.00
2022-10-20T02:17:18.195Z,0.00
2022-10-20T02:18:18.201Z,0.00
2022-10-20T02:19:18.157Z,0.00
2022-10-20T02:20:18.172Z,0.00
2022-10-20T02:21:18.884Z,0.00
2022-10-20T02:22:18.126Z,0.00
2022-10-20T02:23:18.157Z,0.00
2022-10-20T02:24:18.105Z,0.00
2022-10-20T02:25:18.111Z,0.00
2022-10-20T02:26:18.106Z,0.00
2022-10-20T02:27:18.079Z,0.00
2022-10-20T02:28:18.099Z,0.00
2022-10-20T02:29:18.086Z,0.00
2022-10-20T02:30:18.032Z,0.00
2022-10-20T02:31:18.073Z,0.00
2022-10-20T02:32:18.023Z,0.00
2022-10-20T02:33:18.043Z,0.00
2022-10-20T02:34:18.054Z,0.00
2022-10-20T02:35:17.992Z,0.00
2022-10-20T02:36:18.025Z,0.00
2022-10-20T02:37:18.566Z,0.00
2022-10-20T02:38:18.196Z,0.00
2022-10-20T02:39:17.975Z,0.00
2022-10-20T02:40:17.933Z,0.00
2022-10-20T02:41:17.915Z,0.00
2022-10-20T02:42:17.905Z,0.00
2022-10-20T02:43:17.898Z,0.00
2022-10-20T02:44:17.966Z,0.00
2022-10-20T02:45:17.908Z,0.00
2022-10-20T02:46:17.886Z,0.00
2022-10-20T02:47:17.854Z,0.00
2022-10-20T02:48:18.086Z,0.00
2022-10-20T02:49:17.837Z,0.00
2022-10-20T02:50:17.875Z,0.00
2022-10-20T02:51:17.809Z,0.00
2022-10-20T02:52:17.786Z,0.00
2022-10-20T02:53:17.780Z,0.00
2022-10-20T02:54:17.770Z,0.00
2022-10-20T02:56:17.765Z,0.00
2022-10-20T02:57:17.755Z,0.00
2022-10-20T02:58:17.759Z,0.00
2022-10-20T02:59:18.032Z,0.00
2022-10-20T03:00:17.706Z,0.00
2022-10-20T03:01:17.743Z,0.00
2022-10-20T03:02:17.765Z,0.00
2022-10-20T03:03:17.668Z,0.00
2022-10-20T03:04:17.756Z,0.00
2022-10-20T03:05:17.686Z,0.00
2022-10-20T03:06:17.642Z,0.00
2022-10-20T03:07:17.621Z,0.00
2022-10-20T03:08:18.517Z,0.00
2022-10-20T03:09:17.616Z,0.00
2022-10-20T03:10:17.600Z,0.00
2022-10-20T03:11:17.651Z,0.00
2022-10-20T03:12:17.570Z,0.00
2022-10-20T03:13:17.615Z,0.00
2022-10-20T03:14:17.553Z,0.00
2022-10-20T03:15:17.618Z,0.00
2022-10-20T03:16:17.576Z,0.00
2022-10-20T03:17:17.517Z,0.00
2022-10-20T03:18:17.504Z,0.00
2022-10-20T03:19:17.505Z,0.00
2022-10-20T03:20:17.499Z,0.00
2022-10-20T03:21:17.517Z,0.00
2022-10-20T03:22:17.501Z,0.00
2022-10-20T03:23:19.980Z,0.00
2022-10-20T03:24:17.472Z,0.00
2022-10-20T03:25:17.462Z,0.00
2022-10-20T03:26:17.444Z,0.00
2022-10-20T03:27:17.446Z,0.00
2022-10-20T03:28:17.429Z,0.00
2022-10-20T03:29:17.373Z,0.00
2022-10-20T03:30:17.414Z,0.00
2022-10-20T03:31:17.359Z,0.00
2022-10-20T03:32:17.351Z,0.00
2022-10-20T03:33:17.355Z,0.00
2022-10-20T03:34:17.370Z,0.00
2022-10-20T03:35:17.350Z,0.00
2022-10-20T03:36:17.309Z,0.00
2022-10-20T03:37:17.327Z,0.00
2022-10-20T03:38:17.297Z,0.00
2022-10-20T03:39:17.270Z,0.00
2022-10-20T03:40:17.263Z,0.00
2022-10-20T03:41:17.285Z,0.00
2022-10-20T03:42:17.233Z,0.00
2022-10-20T03:43:17.228Z,0.00
2022-10-20T03:44:17.213Z,0.00
2022-10-20T03:45:18.642Z,0.00
2022-10-20T03:46:17.236Z,0.00
2022-10-20T03:47:17.176Z,0.00
2022-10-20T03:48:17.173Z,0.00
2022-10-20T03:49:17.159Z,0.00
2022-10-20T03:50:17.176Z,0.00
2022-10-20T03:51:17.188Z,0.00
2022-10-20T03:52:17.123Z,0.00
2022-10-20T03:53:17.113Z,0.00
2022-10-20T03:54:17.098Z,0.00
2022-10-20T03:55:17.092Z,0.00
2022-10-20T03:56:17.113Z,0.00
2022-10-20T03:57:17.060Z,0.00
2022-10-20T03:58:17.087Z,0.00
2022-10-20T03:59:17.044Z,0.00
2022-10-20T04:00:17.040Z,0.00
2022-10-20T04:01:17.091Z,0.00
2022-10-20T04:02:17.181Z,0.00
2022-10-20T04:03:16.997Z,0.00
2022-10-20T04:04:16.991Z,0.00
2022-10-20T04:05:16.976Z,0.00
2022-10-20T04:06:16.974Z,0.00
2022-10-20T04:07:16.986Z,0.00
2022-10-20T04:08:16.996Z,0.00
2022-10-20T04:09:16.948Z,0.00
2022-10-20T04:10:17.871Z,0.00
2022-10-20T04:11:16.917Z,0.00
2022-10-20T04:12:16.938Z,0.00
2022-10-20T04:13:16.929Z,0.00
2022-10-20T04:14:16.918Z,0.00
2022-10-20T04:15:16.906Z,0.00
2022-10-20T04:16:16.866Z,0.00
2022-10-20T04:17:16.880Z,0.00
2022-10-20T04:18:44.037Z,0.00
2022-10-20T04:19:16.818Z,0.00
2022-10-20T04:20:16.854Z,0.00
2022-10-20T04:21:16.809Z,0.00
2022-10-20T04:22:16.826Z,0.00
2022-10-20T04:23:16.787Z,0.00
2022-10-20T04:24:16.772Z,0.00
2022-10-20T04:25:16.757Z,0.00
2022-10-20T04:26:16.766Z,0.00
2022-10-20T04:27:16.766Z,0.00
2022-10-20T04:28:16.760Z,0.00
2022-10-20T04:29:16.710Z,0.00
2022-10-20T04:30:16.741Z,0.00
2022-10-20T04:31:16.684Z,0.00
2022-10-20T04:32:16.686Z,0.00
2022-10-20T04:33:16.730Z,0.00
2022-10-20T04:34:16.669Z,0.00
2022-10-20T04:35:16.677Z,0.00
2022-10-20T04:36:16.641Z,0.00
2022-10-20T04:37:16.625Z,0.00
2022-10-20T04:38:17.580Z,0.00
2022-10-20T04:39:16.640Z,0.00
2022-10-20T04:40:16.594Z,0.00
2022-10-20T04:41:16.578Z,0.00
2022-10-20T04:42:16.571Z,0.00
2022-10-20T04:43:16.592Z,0.00
2022-10-20T04:44:16.571Z,0.00
2022-10-20T04:45:16.558Z,0.00
2022-10-20T04:46:16.606Z,0.00
2022-10-20T04:47:17.507Z,0.00
2022-10-20T04:48:16.535Z,0.00
2022-10-20T04:49:16.494Z,0.00
2022-10-20T04:50:16.513Z,0.00
2022-10-20T04:51:16.567Z,0.00
2022-10-20T04:52:16.454Z,0.00
2022-10-20T04:53:16.460Z,0.00
2022-10-20T04:54:16.477Z,0.00
2022-10-20T04:55:16.561Z,0.00
2022-10-20T04:56:16.522Z,0.00
2022-10-20T04:57:16.476Z,0.00
2022-10-20T04:58:17.395Z,0.00
2022-10-20T04:59:16.450Z,0.00
2022-10-20T05:00:16.391Z,0.00
2022-10-20T05:01:16.449Z,0.00
2022-10-20T05:02:16.566Z,0.00
2022-10-20T05:03:16.371Z,0.00
2022-10-20T05:04:16.325Z,0.00
2022-10-20T05:05:16.359Z,0.00
2022-10-20T05:06:16.308Z,0.00
2022-10-20T05:07:16.330Z,0.00
2022-10-20T05:08:16.335Z,0.00
2022-10-20T05:09:16.434Z,0.00
2022-10-20T05:10:16.290Z,0.00
2022-10-20T05:11:16.273Z,0.00
2022-10-20T05:12:16.253Z,0.00
2022-10-20T05:13:16.222Z,0.00
2022-10-20T05:14:16.276Z,0.00
2022-10-20T05:15:16.242Z,0.00
2022-10-20T05:16:16.192Z,0.00
2022-10-20T05:17:16.172Z,0.00
2022-10-20T05:18:16.170Z,0.00
2022-10-20T05:19:16.158Z,0.00
2022-10-20T05:20:16.151Z,0.00
2022-10-20T05:21:16.164Z,0.00
2022-10-20T05:22:16.173Z,0.00
2022-10-20T05:23:16.117Z,0.00
2022-10-20T05:24:19.808Z,0.00
2022-10-20T05:25:35.619Z,0.00
2022-10-20T05:26:16.108Z,0.00
2022-10-20T05:27:16.060Z,0.00
2022-10-20T05:28:22.331Z,0.00
2022-10-20T05:29:22.560Z,4.00
2022-10-20T05:30:22.499Z,0.00
2022-10-20T05:31:16.049Z,0.00
2022-10-20T05:32:16.021Z,0.00
2022-10-20T05:33:16.023Z,4.00
2022-10-20T05:34:16.022Z,0.00
2022-10-20T05:35:15.983Z,4.00
2022-10-20T05:36:19.343Z,4.00
2022-10-20T05:37:15.998Z,4.00
2022-10-20T05:38:15.947Z,4.00
2022-10-20T05:39:15.940Z,4.00
2022-10-20T05:40:15.968Z,8.00
2022-10-20T05:41:15.960Z,12.00
2022-10-20T05:42:15.905Z,12.00
2022-10-20T05:43:17.263Z,12.00
2022-10-20T05:44:15.875Z,16.00
2022-10-20T05:45:15.862Z,20.00
2022-10-20T05:46:15.927Z,24.00
2022-10-20T05:47:15.882Z,28.00
2022-10-20T05:48:15.855Z,36.00
2022-10-20T05:49:15.978Z,44.00
2022-10-20T05:50:15.838Z,52.00
2022-10-20T05:51:15.849Z,60.00
2022-10-20T05:52:15.864Z,72.00
2022-10-20T05:53:16.104Z,76.00
2022-10-20T05:54:15.765Z,84.00
2022-10-20T05:55:15.753Z,92.00
2022-10-20T05:56:15.815Z,112.00
2022-10-20T05:57:15.799Z,132.00
2022-10-20T05:58:19.638Z,156.00
2022-10-20T05:59:15.737Z,180.00
2022-10-20T06:00:15.767Z,192.00
2022-10-20T06:01:15.709Z,204.00
2022-10-20T06:02:15.685Z,220.00
2022-10-20T06:03:17.569Z,232.00
2022-10-20T06:04:15.723Z,248.00
2022-10-20T06:05:15.697Z,268.00
2022-10-20T06:06:15.626Z,280.00
2022-10-20T06:07:15.623Z,296.00
2022-10-20T06:08:15.618Z,312.00
2022-10-20T06:09:15.602Z,324.00
2022-10-20T06:10:15.628Z,344.00
2022-10-20T06:11:15.617Z,364.00
2022-10-20T06:12:15.631Z,384.00
2022-10-20T06:13:15.561Z,412.00
2022-10-20T06:14:15.549Z,452.00
2022-10-20T06:15:15.567Z,488.00
2022-10-20T06:16:15.538Z,532.00
2022-10-20T06:17:15.508Z,572.00
2022-10-20T06:18:15.506Z,612.00
2022-10-20T06:19:15.517Z,652.00
2022-10-20T06:20:15.487Z,692.00
2022-10-20T06:21:17.097Z,736.00
2022-10-20T06:22:15.503Z,776.00
2022-10-20T06:23:16.094Z,820.00
2022-10-20T06:24:15.433Z,860.00
2022-10-20T06:25:15.426Z,904.00
2022-10-20T06:26:15.453Z,940.00
2022-10-20T06:27:15.443Z,976.00
2022-10-20T06:28:15.408Z,1016.00
2022-10-20T06:29:15.375Z,1060.00
2022-10-20T06:30:15.370Z,1104.00
2022-10-20T06:31:15.390Z,1148.00
2022-10-20T06:32:15.353Z,1196.00
2022-10-20T06:33:15.332Z,1236.00
2022-10-20T06:34:16.064Z,1276.00
2022-10-20T06:35:15.346Z,1328.00
2022-10-20T06:36:15.313Z,1376.00
2022-10-20T06:37:15.294Z,1428.00
2022-10-20T06:38:15.277Z,1488.00
2022-10-20T06:39:15.324Z,1544.00
2022-10-20T06:40:15.298Z,1604.00
2022-10-20T06:41:15.252Z,1668.00
2022-10-20T06:42:15.242Z,1732.00
2022-10-20T06:43:15.223Z,1792.00
2022-10-20T06:44:15.245Z,1860.00
2022-10-20T06:45:17.047Z,1924.00
2022-10-20T06:46:16.068Z,1988.00
2022-10-20T06:47:15.182Z,2052.00
2022-10-20T06:48:15.162Z,2120.00
2022-10-20T06:49:15.159Z,2196.00
2022-10-20T06:50:15.155Z,2268.00
2022-10-20T06:51:15.172Z,2336.00
2022-10-20T06:52:15.153Z,2404.00
2022-10-20T06:53:15.112Z,2468.00
2022-10-20T06:54:15.095Z,2536.00
2022-10-20T06:55:15.079Z,2604.00
2022-10-20T06:56:15.109Z,2668.00
2022-10-20T06:57:15.059Z,2728.00
2022-10-20T06:58:15.059Z,2780.00
2022-10-20T06:59:15.073Z,2824.00
2022-10-20T07:00:15.156Z,2872.00
2022-10-20T07:01:15.339Z,2928.00
2022-10-20T07:02:15.067Z,2992.00
2022-10-20T07:03:15.545Z,3044.00
2022-10-20T07:04:15.035Z,3100.00
2022-10-20T07:05:14.980Z,3148.00
2022-10-20T07:06:15.004Z,3200.00
2022-10-20T07:07:14.983Z,3244.00
2022-10-20T07:08:14.939Z,3292.00
2022-10-20T07:09:15.269Z,3344.00
2022-10-20T07:10:14.936Z,3400.00
2022-10-20T07:11:14.943Z,3456.00
2022-10-20T07:12:14.950Z,3500.00
2022-10-20T07:13:14.883Z,3528.00
2022-10-20T07:14:14.867Z,3552.00
2022-10-20T07:15:15.548Z,3588.00
2022-10-20T07:16:14.861Z,3640.00
2022-10-20T07:17:14.873Z,3700.00
2022-10-20T07:18:14.865Z,3768.00
2022-10-20T07:19:14.829Z,3828.00
2022-10-20T07:20:14.879Z,3884.00
2022-10-20T07:21:14.832Z,3908.00
2022-10-20T07:22:14.806Z,3904.00
2022-10-20T07:23:14.808Z,3900.00
2022-10-20T07:24:14.835Z,3912.00
2022-10-20T07:25:14.789Z,3932.00
2022-10-20T07:26:14.738Z,3964.00
2022-10-20T07:27:15.577Z,4000.00
2022-10-20T07:28:14.736Z,4032.00
2022-10-20T07:29:14.875Z,4068.00
2022-10-20T07:30:14.738Z,4100.00
2022-10-20T07:31:14.721Z,4140.00
2022-10-20T07:32:14.728Z,4168.00
2022-10-20T07:33:14.708Z,4212.00
2022-10-20T07:34:25.198Z,4256.00
2022-10-20T07:35:14.717Z,4280.00
2022-10-20T07:36:14.633Z,4300.00
2022-10-20T07:37:14.630Z,4332.00
2022-10-20T07:38:14.659Z,4380.00
2022-10-20T07:39:14.702Z,4424.00
2022-10-20T07:40:14.621Z,4480.00
2022-10-20T07:41:14.577Z,4548.00
2022-10-20T07:42:14.576Z,4628.00
2022-10-20T07:43:14.565Z,4716.00
2022-10-20T07:44:14.673Z,4816.00
2022-10-20T07:45:14.565Z,4908.00
2022-10-20T07:46:14.522Z,4968.00
2022-10-20T07:47:14.512Z,5004.00
2022-10-20T07:48:14.515Z,5044.00
2022-10-20T07:50:14.492Z,5156.00
2022-10-20T07:52:14.448Z,5260.00
2022-10-20T07:53:14.476Z,5308.00
2022-10-20T07:54:14.476Z,5364.00
2022-10-20T07:55:33.487Z,5428.00
2022-10-20T07:56:14.416Z,5508.00
2022-10-20T07:57:14.412Z,5600.00
2022-10-20T07:58:14.388Z,5688.00
2022-10-20T07:59:14.433Z,5756.00
2022-10-20T08:00:14.406Z,5876.00
2022-10-20T08:01:14.541Z,5996.00
2022-10-20T08:02:14.395Z,6116.00
2022-10-20T08:03:14.345Z,6204.00
2022-10-20T08:04:14.369Z,6272.00
2022-10-20T08:05:14.339Z,6340.00
2022-10-20T08:06:14.292Z,6412.00
2022-10-20T08:07:14.292Z,6464.00
2022-10-20T08:08:14.305Z,6488.00
2022-10-20T08:09:14.267Z,6496.00
2022-10-20T08:10:14.346Z,6504.00
2022-10-20T08:11:14.266Z,6460.00
2022-10-20T08:12:14.232Z,6364.00
2022-10-20T08:13:14.234Z,6288.00
2022-10-20T08:14:14.202Z,6216.00
2022-10-20T08:15:15.024Z,6108.00
2022-10-20T08:16:15.988Z,6040.00
2022-10-20T08:17:14.223Z,6000.00
2022-10-20T08:18:14.990Z,5976.00
2022-10-20T08:19:17.483Z,6016.00
2022-10-20T08:20:18.934Z,6028.00
2022-10-20T08:21:14.160Z,6076.00
2022-10-20T08:22:14.158Z,6120.00
2022-10-20T08:23:14.909Z,6164.00
2022-10-20T08:24:14.100Z,6196.00
2022-10-20T08:25:14.117Z,6196.00
2022-10-20T08:26:14.066Z,6232.00
2022-10-20T08:27:14.108Z,6304.00
2022-10-20T08:28:14.094Z,6356.00
2022-10-20T08:29:14.313Z,6452.00
2022-10-20T08:30:29.146Z,6520.00
2022-10-20T08:31:14.019Z,6612.00
2022-10-20T08:32:14.066Z,6716.00
2022-10-20T08:33:14.555Z,6816.00
2022-10-20T08:34:13.975Z,6836.00
2022-10-20T08:35:14.007Z,6900.00
2022-10-20T08:36:14.549Z,6896.00
2022-10-20T08:37:13.979Z,6888.00
2022-10-20T08:38:14.545Z,6984.00
2022-10-20T08:39:13.976Z,7244.00
2022-10-20T08:40:13.957Z,7544.00
2022-10-20T08:41:13.913Z,7836.00
2022-10-20T08:42:13.928Z,8068.00
2022-10-20T08:43:13.896Z,8268.00
2022-10-20T08:44:13.869Z,8496.00
2022-10-20T08:45:13.892Z,8644.00
2022-10-20T08:46:13.871Z,8860.00
2022-10-20T08:47:14.424Z,9072.00
2022-10-20T08:48:13.916Z,9232.00
2022-10-20T08:49:13.812Z,9324.00
2022-10-20T08:50:13.856Z,9404.00
2022-10-20T08:51:13.796Z,9388.00
2022-10-20T08:52:13.797Z,9424.00
2022-10-20T08:53:13.774Z,9408.00
2022-10-20T08:54:13.747Z,9324.00
2022-10-20T08:55:13.802Z,9300.00
2022-10-20T08:56:13.763Z,9292.00
2022-10-20T08:57:13.721Z,9396.00
2022-10-20T08:58:13.785Z,9492.00
2022-10-20T08:59:13.713Z,9552.00
2022-10-20T09:00:13.763Z,9460.00
2022-10-20T09:01:13.680Z,9340.00
2022-10-20T09:02:13.732Z,9268.00
2022-10-20T09:03:13.688Z,9212.00
2022-10-20T09:04:13.641Z,9212.00
2022-10-20T09:05:16.703Z,9276.00
2022-10-20T09:06:13.644Z,9344.00
2022-10-20T09:07:13.623Z,9452.00
2022-10-20T09:08:13.634Z,9532.00
2022-10-20T09:09:13.658Z,9580.00
2022-10-20T09:10:13.579Z,9656.00
2022-10-20T09:11:13.591Z,9756.00
2022-10-20T09:12:13.579Z,9892.00
2022-10-20T09:13:13.548Z,10084.00
2022-10-20T09:14:13.535Z,10340.00
2022-10-20T09:15:13.550Z,10636.00
2022-10-20T09:16:22.048Z,10912.00
2022-10-20T09:17:13.506Z,11136.00
2022-10-20T09:18:13.522Z,11296.00
2022-10-20T09:19:13.480Z,11400.00
2022-10-20T09:20:13.464Z,11420.00
2022-10-20T09:21:13.457Z,11368.00
2022-10-20T09:22:13.458Z,11332.00
2022-10-20T09:23:28.502Z,11324.00
2022-10-20T09:24:13.511Z,11384.00
2022-10-20T09:25:13.434Z,11476.00
2022-10-20T09:26:24.781Z,11584.00
2022-10-20T09:27:13.548Z,11676.00
2022-10-20T09:28:19.545Z,11684.00
2022-10-20T09:29:14.702Z,11680.00
2022-10-20T09:30:13.350Z,11684.00
2022-10-20T09:31:13.441Z,11688.00
2022-10-20T09:32:44.520Z,11752.00
2022-10-20T09:33:14.070Z,11844.00
2022-10-20T09:34:14.334Z,11956.00
2022-10-20T09:35:13.369Z,12092.00
2022-10-20T09:36:13.321Z,12240.00
2022-10-20T09:37:13.298Z,12372.00
2022-10-20T09:38:13.302Z,12496.00
2022-10-20T09:39:13.265Z,12628.00
2022-10-20T09:40:13.239Z,12780.00
2022-10-20T09:41:13.241Z,12956.00
2022-10-20T09:42:13.233Z,13144.00
2022-10-20T09:43:13.264Z,13312.00
2022-10-20T09:44:13.269Z,13456.00
2022-10-20T09:45:13.264Z,13584.00
2022-10-20T09:46:13.205Z,13700.00
2022-10-20T09:47:13.171Z,13808.00
2022-10-20T09:48:13.199Z,13900.00
2022-10-20T09:49:13.159Z,13984.00
2022-10-20T09:50:13.166Z,14032.00
2022-10-20T09:52:13.130Z,14000.00
2022-10-20T09:53:13.089Z,13908.00
2022-10-20T09:54:14.091Z,13796.00
2022-10-20T09:55:14.098Z,13672.00
2022-10-20T09:56:13.065Z,13576.00
2022-10-20T09:57:13.923Z,13520.00
2022-10-20T09:58:17.101Z,13480.00
2022-10-20T09:59:13.075Z,13440.00
2022-10-20T10:00:32.450Z,13368.00
2022-10-20T10:01:13.125Z,13296.00
2022-10-20T10:02:12.994Z,13236.00
2022-10-20T10:03:13.038Z,13216.00
2022-10-20T10:04:12.973Z,13244.00
2022-10-20T10:05:14.727Z,13304.00
2022-10-20T10:06:13.001Z,13376.00
2022-10-20T10:07:12.953Z,13452.00
2022-10-20T10:08:12.938Z,13512.00
2022-10-20T10:09:13.000Z,13552.00
2022-10-20T10:10:12.896Z,13580.00
2022-10-20T10:11:12.934Z,13580.00
2022-10-20T10:12:12.888Z,13576.00
2022-10-20T10:13:12.953Z,13600.00
2022-10-20T10:14:12.852Z,13640.00
2022-10-20T10:15:12.990Z,13648.00
2022-10-20T10:16:12.835Z,13640.00
2022-10-20T10:17:12.882Z,13592.00
2022-10-20T10:18:13.737Z,13540.00
2022-10-20T10:20:12.871Z,13316.00
2022-10-20T10:21:13.450Z,13212.00
2022-10-20T10:22:12.772Z,13100.00
2022-10-20T10:23:12.774Z,13020.00
2022-10-20T10:24:12.744Z,12988.00
2022-10-20T10:25:12.775Z,12988.00
2022-10-20T10:26:12.766Z,13008.00
2022-10-20T10:27:12.721Z,13056.00
2022-10-20T10:28:12.716Z,13100.00
2022-10-20T10:29:13.482Z,13144.00
2022-10-20T10:30:12.694Z,13180.00
2022-10-20T10:31:13.107Z,13228.00
2022-10-20T10:32:13.630Z,13276.00
2022-10-20T10:33:12.669Z,13304.00
2022-10-20T10:34:12.639Z,13312.00
2022-10-20T10:35:12.633Z,13296.00
2022-10-20T10:36:12.612Z,13284.00
2022-10-20T10:37:12.696Z,13264.00
2022-10-20T10:38:12.636Z,13276.00
2022-10-20T10:39:12.579Z,13300.00
2022-10-20T10:40:12.569Z,13328.00
2022-10-20T10:41:12.561Z,13412.00
2022-10-20T10:42:12.602Z,13492.00
2022-10-20T10:43:12.608Z,13560.00
2022-10-20T10:44:12.525Z,13704.00
2022-10-20T10:45:12.523Z,13808.00
2022-10-20T10:46:12.504Z,13800.00
2022-10-20T10:47:12.543Z,14032.00
2022-10-20T10:48:12.509Z,14172.00
2022-10-20T10:49:12.483Z,14364.00
2022-10-20T10:50:12.497Z,14452.00
2022-10-20T10:51:12.464Z,14556.00
2022-10-20T10:52:13.073Z,14512.00
2022-10-20T10:53:12.421Z,14504.00
2022-10-20T10:54:12.408Z,14460.00
2022-10-20T10:55:21.182Z,14440.00
2022-10-20T10:56:12.434Z,14404.00
2022-10-20T10:57:12.735Z,14316.00
2022-10-20T10:59:12.429Z,14164.00
2022-10-20T11:00:12.342Z,14152.00
2022-10-20T11:01:13.135Z,14244.00
2022-10-20T11:02:13.029Z,14288.00
2022-10-20T11:03:12.311Z,14256.00
2022-10-20T11:04:12.295Z,14188.00
2022-10-20T11:05:12.319Z,14124.00
2022-10-20T11:06:12.574Z,14156.00
2022-10-20T11:07:12.297Z,14196.00
2022-10-20T11:08:12.351Z,14240.00
2022-10-20T11:09:12.242Z,14340.00
2022-10-20T11:10:12.238Z,14432.00
2022-10-20T11:11:12.261Z,14504.00
2022-10-20T11:12:12.239Z,14596.00
2022-10-20T11:13:13.071Z,14700.00
2022-10-20T11:14:12.235Z,14848.00
2022-10-20T11:15:12.182Z,14968.00
2022-10-20T11:16:12.168Z,15240.00
2022-10-20T11:17:12.460Z,15556.00
2022-10-20T11:18:12.194Z,15852.00
2022-10-20T11:19:12.169Z,16164.00
2022-10-20T11:20:12.192Z,16436.00
2022-10-20T11:21:12.150Z,16640.00
2022-10-20T11:22:14.334Z,16772.00
2022-10-20T11:23:12.132Z,16600.00
2022-10-20T11:24:12.069Z,16620.00
2022-10-20T11:25:12.067Z,16760.00
2022-10-20T11:26:12.096Z,16580.00
2022-10-20T11:27:12.029Z,16748.00
2022-10-20T11:28:12.060Z,16548.00
2022-10-20T11:29:12.045Z,16052.00
2022-10-20T11:30:12.366Z,15564.00
2022-10-20T11:31:12.046Z,15388.00
2022-10-20T11:32:11.991Z,15252.00
2022-10-20T11:33:12.071Z,15188.00
2022-10-20T11:34:11.981Z,15160.00
2022-10-20T11:35:12.048Z,15232.00
2022-10-20T11:36:12.195Z,15352.00
2022-10-20T11:37:12.455Z,15536.00
2022-10-20T11:38:11.932Z,15712.00
2022-10-20T11:39:11.907Z,15860.00
2022-10-20T11:40:12.080Z,15984.00
2022-10-20T11:41:11.904Z,16056.00
2022-10-20T11:42:11.870Z,16112.00
2022-10-20T11:43:11.898Z,16156.00
2022-10-20T11:44:11.858Z,16152.00
2022-10-20T11:45:11.870Z,16148.00
2022-10-20T11:46:12.900Z,16152.00
2022-10-20T11:47:11.818Z,16192.00
2022-10-20T11:48:11.844Z,16228.00
2022-10-20T11:49:11.842Z,16272.00
2022-10-20T11:50:11.848Z,16316.00
2022-10-20T11:51:11.808Z,16332.00
2022-10-20T11:52:11.767Z,16312.00
2022-10-20T11:53:11.768Z,16228.00
2022-10-20T11:54:11.775Z,16068.00
2022-10-20T11:55:11.769Z,15848.00
2022-10-20T11:56:11.716Z,15616.00
2022-10-20T11:57:11.709Z,15408.00
2022-10-20T11:58:11.767Z,15232.00
2022-10-20T11:59:11.718Z,15100.00
2022-10-20T12:00:11.773Z,15008.00
2022-10-20T12:01:12.572Z,14956.00
2022-10-20T12:02:11.712Z,14964.00
2022-10-20T12:03:11.712Z,15028.00
2022-10-20T12:04:12.442Z,15120.00
2022-10-20T12:05:11.619Z,15240.00
2022-10-20T12:06:11.629Z,15368.00
2022-10-20T12:07:11.596Z,15524.00
2022-10-20T12:08:28.818Z,15704.00
2022-10-20T12:09:11.816Z,15864.00
2022-10-20T12:10:11.764Z,15972.00
2022-10-20T12:11:11.549Z,15996.00
2022-10-20T12:12:11.539Z,15932.00
2022-10-20T12:13:11.559Z,15796.00
2022-10-20T12:14:12.102Z,15648.00
2022-10-20T12:15:14.092Z,15532.00
2022-10-20T12:16:11.518Z,15452.00
2022-10-20T12:17:11.512Z,15408.00
2022-10-20T12:18:11.464Z,15376.00
2022-10-20T12:19:11.492Z,15364.00
2022-10-20T12:20:11.464Z,15356.00
2022-10-20T12:21:11.441Z,15272.00
2022-10-20T12:22:11.467Z,15212.00
2022-10-20T12:23:11.409Z,15208.00
2022-10-20T12:24:11.437Z,15168.00
2022-10-20T12:25:11.391Z,15132.00
2022-10-20T12:26:11.400Z,15084.00
2022-10-20T12:27:11.372Z,15024.00
2022-10-20T12:28:17.340Z,14932.00
2022-10-20T12:29:11.391Z,14816.00
2022-10-20T12:30:11.362Z,14680.00
2022-10-20T12:31:11.354Z,14528.00
2022-10-20T12:32:11.400Z,14384.00
2022-10-20T12:33:11.310Z,14272.00
2022-10-20T12:34:11.315Z,14188.00
2022-10-20T12:35:11.277Z,14152.00
2022-10-20T12:36:11.287Z,14156.00
2022-10-20T12:37:11.273Z,14200.00
2022-10-20T12:38:11.305Z,14252.00
2022-10-20T12:39:11.241Z,14264.00